createdAt,value
2022-08-03T00:02:37.784Z,19.70
2022-08-03T00:05:25.903Z,19.70
2022-08-03T00:08:14.032Z,19.70
2022-08-03T00:11:07.953Z,19.80
2022-08-03T00:13:56.075Z,19.70
2022-08-03T00:16:44.174Z,19.60
2022-08-03T00:19:33.779Z,19.60
2022-08-03T00:22:21.913Z,19.50
2022-08-03T00:25:12.214Z,19.40
2022-08-03T00:28:00.327Z,19.50
2022-08-03T00:30:48.548Z,19.50
2022-08-03T00:33:59.512Z,19.40
2022-08-03T00:36:47.696Z,19.50
2022-08-03T00:39:35.831Z,19.50
2022-08-03T00:42:23.960Z,19.60
2022-08-03T00:45:17.075Z,19.50
2022-08-03T00:48:19.463Z,19.60
2022-08-03T00:51:16.186Z,19.60
2022-08-03T00:54:06.108Z,19.60
2022-08-03T00:56:59.461Z,19.70
2022-08-03T00:59:48.647Z,19.70
2022-08-03T01:02:37.184Z,19.60
2022-08-03T01:05:26.139Z,19.50
2022-08-03T01:08:24.036Z,19.50
2022-08-03T01:11:20.016Z,19.40
2022-08-03T01:14:19.392Z,19.40
2022-08-03T01:17:15.835Z,19.50
2022-08-03T01:20:09.120Z,19.50
2022-08-03T01:23:11.590Z,19.50
2022-08-03T01:26:14.207Z,19.60
2022-08-03T01:29:24.272Z,19.60
2022-08-03T01:32:59.818Z,19.70
2022-08-03T01:35:33.264Z,19.60
2022-08-03T01:38:30.342Z,19.80
2022-08-03T01:41:23.539Z,19.70
2022-08-03T01:44:29.918Z,19.80
2022-08-03T01:47:21.992Z,19.70
2022-08-03T01:50:12.970Z,19.80
2022-08-03T01:53:01.509Z,19.80
2022-08-03T01:55:53.404Z,19.60
2022-08-03T01:58:59.740Z,19.50
2022-08-03T02:02:27.683Z,19.40
2022-08-03T02:04:59.572Z,19.30
2022-08-03T02:07:49.834Z,19.20
2022-08-03T02:10:40.239Z,19.20
2022-08-03T02:13:29.927Z,19.10
2022-08-03T02:16:19.140Z,19.00
2022-08-03T02:19:10.815Z,19.00
2022-08-03T02:22:01.918Z,19.00
2022-08-03T02:24:51.246Z,18.90
2022-08-03T02:27:44.091Z,19.10
2022-08-03T02:30:38.532Z,19.10
2022-08-03T02:33:29.446Z,19.00
2022-08-03T02:36:21.431Z,19.00
2022-08-03T02:39:16.851Z,19.00
2022-08-03T02:42:08.688Z,19.10
2022-08-03T02:44:59.776Z,19.20
2022-08-03T02:47:54.100Z,19.20
2022-08-03T02:50:45.422Z,19.30
2022-08-03T02:53:34.483Z,19.30
2022-08-03T02:56:25.380Z,19.40
2022-08-03T02:59:14.689Z,19.50
2022-08-03T03:02:04.081Z,19.40
2022-08-03T03:05:52.269Z,19.50
2022-08-03T03:08:02.860Z,19.50
2022-08-03T03:10:53.250Z,19.50
2022-08-03T03:13:46.106Z,19.50
2022-08-03T03:16:35.088Z,19.60
2022-08-03T03:19:23.890Z,19.60
2022-08-03T03:22:13.599Z,19.50
2022-08-03T03:25:02.214Z,19.40
2022-08-03T03:27:51.032Z,19.40
2022-08-03T03:30:40.491Z,19.30
2022-08-03T03:33:28.849Z,19.20
2022-08-03T03:36:18.422Z,19.10
2022-08-03T03:39:15.235Z,19.10
2022-08-03T03:42:04.453Z,19.00
2022-08-03T03:44:52.622Z,19.00
2022-08-03T03:47:42.396Z,19.00
2022-08-03T03:50:31.842Z,19.00
2022-08-03T03:53:19.934Z,19.00
2022-08-03T03:56:08.058Z,18.90
2022-08-03T03:58:56.271Z,18.90
2022-08-03T04:01:44.469Z,18.90
2022-08-03T04:04:51.809Z,18.80
2022-08-03T04:08:09.643Z,18.80
2022-08-03T04:11:04.817Z,18.80
2022-08-03T04:13:56.787Z,18.90
2022-08-03T04:16:52.691Z,18.80
2022-08-03T04:19:45.974Z,18.80
2022-08-03T04:22:35.426Z,18.80
2022-08-03T04:25:26.389Z,18.80
2022-08-03T04:28:30.899Z,18.80
2022-08-03T04:31:24.024Z,18.80
2022-08-03T04:34:12.294Z,18.90
2022-08-03T04:37:07.078Z,18.90
2022-08-03T04:40:00.161Z,18.90
2022-08-03T04:42:49.815Z,18.90
2022-08-03T04:45:38.219Z,19.00
2022-08-03T04:48:26.592Z,19.00
2022-08-03T04:51:15.196Z,19.30
2022-08-03T04:54:04.719Z,19.20
2022-08-03T04:56:52.784Z,19.20
2022-08-03T04:59:40.992Z,19.30
2022-08-03T05:02:29.109Z,19.30
2022-08-03T05:05:17.260Z,19.30
2022-08-03T05:08:11.169Z,19.40
2022-08-03T05:11:00.710Z,19.50
2022-08-03T05:13:49.171Z,19.60
2022-08-03T05:16:37.223Z,19.60
2022-08-03T05:19:25.337Z,19.70
2022-08-03T05:22:13.467Z,19.70
2022-08-03T05:25:02.273Z,19.80
2022-08-03T05:27:51.685Z,19.80
2022-08-03T05:30:39.772Z,19.90
2022-08-03T05:33:27.787Z,20.00
2022-08-03T05:36:15.900Z,20.20
2022-08-03T05:39:04.112Z,20.10
2022-08-03T05:41:52.153Z,20.20
2022-08-03T05:44:42.211Z,20.30
2022-08-03T05:47:30.301Z,20.40
2022-08-03T05:50:19.925Z,20.60
2022-08-03T05:53:07.970Z,20.60
2022-08-03T05:56:02.092Z,20.70
2022-08-03T05:59:16.357Z,20.80
2022-08-03T06:02:10.973Z,20.90
2022-08-03T06:04:59.030Z,21.10
2022-08-03T06:07:47.508Z,21.10
2022-08-03T06:10:38.295Z,21.20
2022-08-03T06:13:26.603Z,21.30
2022-08-03T06:16:14.733Z,21.40
2022-08-03T06:19:05.178Z,21.50
2022-08-03T06:21:53.355Z,21.60
2022-08-03T06:24:41.573Z,21.80
2022-08-03T06:27:41.385Z,21.80
2022-08-03T06:30:29.543Z,22.00
2022-08-03T06:33:17.703Z,22.10
2022-08-03T06:36:07.639Z,22.20
2022-08-03T06:38:55.672Z,22.40
2022-08-03T06:41:44.778Z,22.50
2022-08-03T06:44:33.169Z,22.60
2022-08-03T06:47:21.207Z,22.80
2022-08-03T06:50:14.296Z,22.90
2022-08-03T06:53:07.179Z,23.00
2022-08-03T06:55:55.477Z,23.20
2022-08-03T06:58:43.580Z,23.30
2022-08-03T07:01:34.831Z,23.40
2022-08-03T07:04:22.938Z,23.60
2022-08-03T07:07:10.968Z,23.80
2022-08-03T07:10:00.333Z,23.80
2022-08-03T07:12:55.668Z,24.00
2022-08-03T07:15:55.374Z,24.10
2022-08-03T07:18:44.420Z,24.20
2022-08-03T07:21:32.456Z,24.40
2022-08-03T07:24:20.537Z,24.60
2022-08-03T07:27:10.195Z,24.60
2022-08-03T07:29:59.268Z,24.60
2022-08-03T07:32:50.399Z,24.70
2022-08-03T07:35:39.016Z,24.70
2022-08-03T07:38:27.047Z,24.80
2022-08-03T07:41:15.095Z,24.90
2022-08-03T07:44:04.624Z,25.00
2022-08-03T07:46:52.833Z,25.10
2022-08-03T07:49:42.033Z,25.20
2022-08-03T07:52:47.949Z,25.20
2022-08-03T07:55:36.132Z,25.30
2022-08-03T07:58:24.582Z,25.40
2022-08-03T08:01:14.869Z,25.60
2022-08-03T08:04:03.330Z,25.70
2022-08-03T08:06:51.375Z,25.80
2022-08-03T08:09:39.438Z,25.80
2022-08-03T08:12:27.477Z,25.90
2022-08-03T08:15:15.622Z,26.10
2022-08-03T08:18:05.021Z,26.30
2022-08-03T08:20:53.070Z,26.40
2022-08-03T08:23:41.936Z,26.40
2022-08-03T08:26:32.316Z,26.40
2022-08-03T08:29:23.115Z,26.50
2022-08-03T08:32:13.207Z,26.60
2022-08-03T08:35:02.617Z,26.60
2022-08-03T08:37:51.480Z,26.70
2022-08-03T08:40:39.619Z,26.70
2022-08-03T08:43:28.728Z,26.80
2022-08-03T08:46:22.980Z,26.90
2022-08-03T08:49:14.526Z,27.00
2022-08-03T08:52:04.938Z,27.10
2022-08-03T08:55:20.360Z,27.30
2022-08-03T08:58:12.996Z,27.30
2022-08-03T09:01:09.175Z,27.50
2022-08-03T09:03:38.000Z,27.60
2022-08-03T09:06:06.479Z,27.70
2022-08-03T09:08:36.140Z,27.70
2022-08-03T09:11:04.664Z,27.80
2022-08-03T09:13:33.782Z,27.80
2022-08-03T09:16:15.904Z,27.80
2022-08-03T09:18:45.388Z,27.80
2022-08-03T09:21:34.963Z,27.80
2022-08-03T09:24:10.330Z,28.00
2022-08-03T09:26:53.946Z,28.10
2022-08-03T09:29:23.300Z,28.10
2022-08-03T09:32:02.465Z,28.20
2022-08-03T09:34:30.852Z,28.30
2022-08-03T09:36:59.267Z,28.30
2022-08-03T09:39:41.802Z,28.30
2022-08-03T09:42:11.476Z,28.30
2022-08-03T09:44:44.734Z,28.30
2022-08-03T09:47:13.981Z,28.40
2022-08-03T09:49:43.325Z,28.40
2022-08-03T09:52:39.352Z,28.40
2022-08-03T09:55:23.391Z,28.50
2022-08-03T09:58:06.895Z,28.50
2022-08-03T10:00:54.959Z,28.60
2022-08-03T10:03:23.408Z,28.70
2022-08-03T10:05:53.027Z,28.80
2022-08-03T10:08:24.881Z,29.00
2022-08-03T10:10:58.722Z,29.00
2022-08-03T10:13:26.792Z,29.10
2022-08-03T10:16:22.391Z,29.10
2022-08-03T10:18:56.577Z,29.10
2022-08-03T10:21:24.670Z,29.10
2022-08-03T10:23:54.534Z,29.20
2022-08-03T10:26:26.143Z,29.30
2022-08-03T10:28:57.346Z,29.30
2022-08-03T10:31:25.783Z,29.40
2022-08-03T10:33:59.079Z,29.40
2022-08-03T10:36:31.356Z,29.60
2022-08-03T10:39:01.838Z,29.60
2022-08-03T10:41:35.362Z,29.70
2022-08-03T10:44:06.370Z,29.70
2022-08-03T10:46:36.083Z,29.80
2022-08-03T10:49:04.626Z,29.90
2022-08-03T10:51:33.204Z,29.90
2022-08-03T10:54:01.710Z,29.80
2022-08-03T10:57:13.485Z,29.80
2022-08-03T11:00:00.399Z,29.80
2022-08-03T11:03:06.378Z,29.90
2022-08-03T11:05:37.139Z,30.00
2022-08-03T11:08:21.381Z,30.00
2022-08-03T11:10:51.586Z,30.00
2022-08-03T11:13:22.656Z,30.10
2022-08-03T11:15:53.991Z,30.30
2022-08-03T11:18:30.289Z,30.30
2022-08-03T11:20:59.743Z,30.30
2022-08-03T11:24:02.454Z,30.50
2022-08-03T11:26:35.283Z,30.60
2022-08-03T11:29:29.950Z,30.50
2022-08-03T11:31:58.692Z,30.60
2022-08-03T11:34:27.045Z,30.60
2022-08-03T11:37:21.566Z,30.70
2022-08-03T11:39:52.992Z,30.80
2022-08-03T11:42:39.970Z,30.90
2022-08-03T11:45:11.039Z,31.00
2022-08-03T11:47:50.736Z,31.00
2022-08-03T11:50:21.391Z,31.10
2022-08-03T11:52:50.934Z,31.10
2022-08-03T11:55:22.080Z,31.10
2022-08-03T11:59:17.557Z,31.20
2022-08-03T12:00:40.641Z,31.10
2022-08-03T12:03:10.767Z,31.20
2022-08-03T12:05:48.077Z,31.30
2022-08-03T12:08:31.291Z,31.30
2022-08-03T12:11:01.468Z,31.60
2022-08-03T12:13:56.721Z,31.80
2022-08-03T12:16:29.542Z,32.00
2022-08-03T12:18:58.519Z,32.20
2022-08-03T12:21:26.954Z,32.40
2022-08-03T12:24:00.232Z,32.50
2022-08-03T12:26:28.923Z,32.50
2022-08-03T12:28:57.772Z,32.60
2022-08-03T12:31:25.830Z,32.60
2022-08-03T12:34:02.082Z,32.60
2022-08-03T12:36:31.660Z,32.70
2022-08-03T12:39:01.535Z,32.70
2022-08-03T12:41:31.707Z,32.70
2022-08-03T12:43:59.964Z,32.80
2022-08-03T12:46:32.788Z,33.00
2022-08-03T12:49:13.493Z,33.20
2022-08-03T12:51:58.160Z,33.90
2022-08-03T12:54:27.905Z,35.20
2022-08-03T12:57:00.563Z,36.50
2022-08-03T12:59:35.141Z,38.20
2022-08-03T13:02:09.431Z,39.90
2022-08-03T13:04:39.295Z,41.40
2022-08-03T13:07:14.262Z,43.90
2022-08-03T13:09:47.871Z,43.90
2022-08-03T13:12:17.336Z,45.10
2022-08-03T13:14:47.057Z,46.30
2022-08-03T13:17:16.750Z,47.10
2022-08-03T13:19:47.360Z,47.90
2022-08-03T13:22:17.414Z,48.30
2022-08-03T13:24:46.743Z,48.50
2022-08-03T13:28:02.565Z,48.70
2022-08-03T13:30:04.021Z,49.20
2022-08-03T13:32:31.980Z,49.60
2022-08-03T13:35:02.520Z,50.00
2022-08-03T13:37:32.210Z,50.30
2022-08-03T13:40:02.439Z,50.20
2022-08-03T13:42:32.618Z,50.50
2022-08-03T13:45:01.898Z,50.90
2022-08-03T13:47:30.323Z,51.10
2022-08-03T13:50:00.758Z,51.30
2022-08-03T13:52:33.926Z,51.70
2022-08-03T13:55:02.316Z,51.60
2022-08-03T13:58:11.739Z,51.40
2022-08-03T14:00:26.339Z,51.20
2022-08-03T14:03:13.652Z,51.20
2022-08-03T14:05:43.074Z,50.60
2022-08-03T14:08:12.866Z,48.70
2022-08-03T14:10:43.582Z,47.40
2022-08-03T14:13:12.730Z,46.10
2022-08-03T14:15:50.107Z,44.60
2022-08-03T14:18:28.576Z,43.40
2022-08-03T14:21:05.944Z,42.20
2022-08-03T14:23:37.415Z,41.70
2022-08-03T14:26:05.790Z,42.60
2022-08-03T14:28:33.681Z,44.30
2022-08-03T14:31:02.869Z,45.90
2022-08-03T14:33:30.906Z,47.80
2022-08-03T14:35:58.808Z,49.50
2022-08-03T14:38:27.216Z,51.30
2022-08-03T14:40:56.596Z,51.90
2022-08-03T14:43:24.687Z,51.70
2022-08-03T14:45:53.878Z,51.50
2022-08-03T14:50:32.766Z,51.60
2022-08-03T14:51:31.786Z,51.30
2022-08-03T14:54:19.922Z,51.40
2022-08-03T14:57:10.728Z,52.50
2022-08-03T14:59:58.758Z,53.20
2022-08-03T15:02:46.836Z,53.10
2022-08-03T15:05:35.595Z,52.80
2022-08-03T15:08:24.829Z,52.00
2022-08-03T15:11:12.913Z,52.00
2022-08-03T15:14:06.082Z,51.80
2022-08-03T15:16:57.205Z,51.80
2022-08-03T15:20:03.517Z,51.10
2022-08-03T15:22:53.244Z,49.40
2022-08-03T15:26:32.242Z,48.40
2022-08-03T15:28:50.687Z,49.30
2022-08-03T15:31:40.219Z,50.40
2022-08-03T15:34:28.222Z,50.70
2022-08-03T15:37:16.750Z,50.10
2022-08-03T15:40:06.044Z,49.90
2022-08-03T15:42:54.095Z,49.50
2022-08-03T15:45:42.913Z,49.40
2022-08-03T15:48:32.383Z,48.70
2022-08-03T15:51:20.414Z,47.20
2022-08-03T15:54:08.551Z,47.50
2022-08-03T15:56:56.604Z,48.70
2022-08-03T15:59:44.652Z,48.60
2022-08-03T16:02:33.407Z,49.20
2022-08-03T16:05:22.842Z,49.30
2022-08-03T16:08:13.804Z,49.10
2022-08-03T16:11:02.304Z,49.10
2022-08-03T16:14:12.837Z,50.10
2022-08-03T16:16:58.343Z,50.70
2022-08-03T16:19:46.340Z,49.60
2022-08-03T16:22:41.538Z,48.00
2022-08-03T16:25:31.268Z,48.20
2022-08-03T16:28:20.061Z,48.50
2022-08-03T16:31:09.070Z,49.10
2022-08-03T16:33:57.682Z,49.50
2022-08-03T16:36:46.855Z,49.90
2022-08-03T16:39:36.549Z,49.70
2022-08-03T16:42:24.647Z,49.10
2022-08-03T16:45:12.800Z,48.50
2022-08-03T16:48:05.227Z,48.60
2022-08-03T16:50:54.555Z,47.90
2022-08-03T16:54:05.776Z,48.80
2022-08-03T16:56:51.961Z,49.60
2022-08-03T16:59:41.683Z,49.20
2022-08-03T17:02:31.526Z,49.20
2022-08-03T17:05:20.223Z,49.80
2022-08-03T17:08:10.641Z,50.20
2022-08-03T17:11:01.132Z,50.30
2022-08-03T17:13:51.239Z,49.10
2022-08-03T17:16:39.824Z,46.50
2022-08-03T17:19:41.646Z,44.10
2022-08-03T17:22:38.019Z,42.50
2022-08-03T17:26:01.577Z,41.20
2022-08-03T17:28:51.951Z,40.20
2022-08-03T17:31:48.816Z,41.20
2022-08-03T17:34:39.177Z,43.60
2022-08-03T17:37:57.618Z,45.50
2022-08-03T17:40:38.003Z,46.90
2022-08-03T17:44:13.053Z,47.70
2022-08-03T17:46:35.681Z,48.10
2022-08-03T17:49:31.855Z,48.20
2022-08-03T17:52:29.187Z,47.60
2022-08-03T17:58:45.659Z,44.60
2022-08-03T18:02:12.255Z,41.80
2022-08-03T18:05:15.935Z,39.80
2022-08-03T18:08:11.009Z,38.30
2022-08-03T18:11:03.479Z,37.30
2022-08-03T18:14:16.257Z,35.90
2022-08-03T18:17:10.538Z,35.60
2022-08-03T18:20:03.211Z,35.00
2022-08-03T18:23:00.624Z,34.50
2022-08-03T18:25:58.020Z,33.80
2022-08-03T18:28:49.235Z,33.40
2022-08-03T18:32:02.530Z,33.00
2022-08-03T18:34:53.783Z,32.60
2022-08-03T18:37:52.263Z,32.40
2022-08-03T18:40:42.749Z,32.10
2022-08-03T18:43:47.688Z,31.50
2022-08-03T18:47:16.215Z,31.50
2022-08-03T18:50:13.329Z,31.30
2022-08-03T18:53:16.346Z,31.00
2022-08-03T18:56:14.195Z,30.80
2022-08-03T18:59:08.279Z,30.60
2022-08-03T19:02:04.374Z,30.40
2022-08-03T19:04:55.403Z,30.10
2022-08-03T19:08:00.094Z,30.00
2022-08-03T19:11:00.598Z,29.80
2022-08-03T19:13:51.667Z,29.50
2022-08-03T19:16:42.209Z,29.40
2022-08-03T19:19:43.622Z,29.30
2022-08-03T19:22:34.203Z,29.10
2022-08-03T19:25:34.534Z,29.00
2022-08-03T19:28:30.115Z,28.80
2022-08-03T19:31:21.468Z,28.70
2022-08-03T19:34:19.517Z,28.60
2022-08-03T19:37:14.613Z,28.30
2022-08-03T19:40:03.591Z,28.20
2022-08-03T19:42:55.644Z,28.10
2022-08-03T19:49:02.194Z,28.00
2022-08-03T19:52:02.041Z,27.80
2022-08-03T19:54:54.673Z,27.70
2022-08-03T19:57:49.382Z,27.60
2022-08-03T20:00:40.069Z,27.50
2022-08-03T20:03:43.302Z,27.30
2022-08-03T20:06:33.065Z,27.20
2022-08-03T20:09:21.737Z,27.10
2022-08-03T20:12:11.661Z,27.10
2022-08-03T20:15:01.104Z,26.90
2022-08-03T20:17:56.662Z,26.80
2022-08-03T20:20:50.970Z,26.70
2022-08-03T20:24:01.687Z,26.60
2022-08-03T20:26:53.493Z,26.50
2022-08-03T20:30:06.872Z,26.50
2022-08-03T20:32:54.940Z,26.40
2022-08-03T20:35:45.765Z,26.30
2022-08-03T20:38:34.033Z,26.20
2022-08-03T20:41:33.265Z,26.20
2022-08-03T20:44:25.980Z,26.00
2022-08-03T20:47:23.667Z,25.90
2022-08-03T20:50:13.003Z,25.90
2022-08-03T20:53:05.967Z,25.80
2022-08-03T20:56:01.802Z,25.70
2022-08-03T20:58:52.216Z,25.80
2022-08-03T21:01:40.309Z,25.60
2022-08-03T21:04:32.552Z,25.50
2022-08-03T21:07:23.682Z,25.40
2022-08-03T21:10:15.479Z,25.40
2022-08-03T21:12:55.767Z,45.90
2022-08-03T21:13:02.897Z,28.00
2022-08-03T21:13:16.863Z,25.30
2022-08-03T21:16:13.554Z,25.30
2022-08-03T21:19:04.711Z,25.10
2022-08-03T21:21:54.565Z,25.10
2022-08-03T21:24:44.585Z,25.20
2022-08-03T21:27:33.144Z,25.00
2022-08-03T21:30:22.711Z,25.00
2022-08-03T21:33:12.151Z,24.90
2022-08-03T21:36:01.847Z,24.90
2022-08-03T21:38:56.100Z,24.80
2022-08-03T21:41:45.090Z,24.80
2022-08-03T21:44:33.255Z,24.70
2022-08-03T21:47:24.451Z,24.70
2022-08-03T21:50:14.825Z,24.70
2022-08-03T21:53:04.236Z,24.60
2022-08-03T21:55:57.516Z,24.60
2022-08-03T21:58:51.318Z,24.50
2022-08-03T22:01:43.432Z,24.60
2022-08-03T22:04:50.681Z,24.40
2022-08-03T22:07:43.505Z,24.30
2022-08-03T22:10:31.697Z,24.20
2022-08-03T22:13:44.171Z,24.20
2022-08-03T22:16:28.322Z,24.10
2022-08-03T22:19:16.383Z,24.10
2022-08-03T22:22:07.548Z,24.00
2022-08-03T22:25:00.455Z,23.90
2022-08-03T22:27:48.803Z,23.80
2022-08-03T22:30:37.765Z,23.90
2022-08-03T22:33:27.660Z,23.80
2022-08-03T22:36:18.905Z,23.70
2022-08-03T22:39:07.168Z,23.60
2022-08-03T22:41:57.886Z,23.60
2022-08-03T22:44:47.267Z,23.60
2022-08-03T22:47:37.031Z,23.60
2022-08-03T22:50:31.715Z,23.50
2022-08-03T22:53:22.662Z,23.50
2022-08-03T22:56:11.342Z,23.40
2022-08-03T22:59:00.726Z,23.30
2022-08-03T23:01:50.909Z,23.30
2022-08-03T23:04:42.032Z,23.30
2022-08-03T23:07:33.727Z,23.20
2022-08-03T23:10:24.717Z,23.20
2022-08-03T23:13:14.601Z,23.20
2022-08-03T23:16:07.122Z,23.20
2022-08-03T23:18:55.406Z,23.10
2022-08-03T23:22:00.062Z,23.00
2022-08-03T23:24:52.002Z,22.90
2022-08-03T23:27:41.279Z,23.00
2022-08-03T23:30:31.508Z,22.80
2022-08-03T23:33:22.475Z,22.50
2022-08-03T23:36:30.431Z,22.80
2022-08-03T23:39:19.926Z,22.70
2022-08-03T23:42:08.456Z,22.70
2022-08-03T23:44:59.476Z,22.70
2022-08-03T23:47:53.700Z,22.70
2022-08-03T23:50:45.776Z,22.80
2022-08-03T23:53:41.609Z,22.60
2022-08-03T23:56:37.910Z,22.60
2022-08-03T23:59:33.407Z,22.60
